sensor_id;sensor_type;location;lat;lon;timestamp;temperature;humidity
18083;DHT22;9168;51.194;6.840;2024-03-22T00:01:48;11.80;99.90
18083;DHT22;9168;51.194;6.840;2024-03-22T00:04:16;11.80;99.90
18083;DHT22;9168;51.194;6.840;2024-03-22T00:06:42;11.70;99.90
18083;DHT22;9168;51.194;6.840;2024-03-22T00:09:10;11.70;99.90
18083;DHT22;9168;51.194;6.840;2024-03-22T00:11:36;11.70;99.90
18083;DHT22;9168;51.194;6.840;2024-03-22T00:14:03;11.60;99.90
18083;DHT22;9168;51.194;6.840;2024-03-22T00:16:29;11.60;99.90
18083;DHT22;9168;51.194;6.840;2024-03-22T00:18:56;11.50;99.90
18083;DHT22;9168;51.194;6.840;2024-03-22T00:21:22;11.50;99.90
18083;DHT22;9168;51.194;6.840;2024-03-22T00:23:49;11.50;99.90
18083;DHT22;9168;51.194;6.840;2024-03-22T00:26:15;11.40;99.90
18083;DHT22;9168;51.194;6.840;2024-03-22T00:28:41;11.40;99.90
18083;DHT22;9168;51.194;6.840;2024-03-22T00:31:08;11.40;99.90
18083;DHT22;9168;51.194;6.840;2024-03-22T00:33:35;11.30;99.90
18083;DHT22;9168;51.194;6.840;2024-03-22T00:36:01;11.30;99.90
18083;DHT22;9168;51.194;6.840;2024-03-22T00:38:27;11.30;99.90
18083;DHT22;9168;51.194;6.840;2024-03-22T00:40:53;11.30;99.90
18083;DHT22;9168;51.194;6.840;2024-03-22T00:43:20;11.40;99.90
18083;DHT22;9168;51.194;6.840;2024-03-22T00:45:47;11.30;99.90
18083;DHT22;9168;51.194;6.840;2024-03-22T00:48:14;11.30;99.90
18083;DHT22;9168;51.194;6.840;2024-03-22T00:50:40;11.40;99.90
18083;DHT22;9168;51.194;6.840;2024-03-22T00:53:06;11.40;99.90
18083;DHT22;9168;51.194;6.840;2024-03-22T00:55:33;11.50;99.90
18083;DHT22;9168;51.194;6.840;2024-03-22T00:58:00;11.50;99.90
18083;DHT22;9168;51.194;6.840;2024-03-22T01:00:26;11.50;99.90
18083;DHT22;9168;51.194;6.840;2024-03-22T01:02:52;11.50;99.90
18083;DHT22;9168;51.194;6.840;2024-03-22T01:05:18;11.60;99.90
18083;DHT22;9168;51.194;6.840;2024-03-22T01:07:45;11.60;99.90
18083;DHT22;9168;51.194;6.840;2024-03-22T01:10:12;11.60;99.90
18083;DHT22;9168;51.194;6.840;2024-03-22T01:12:39;11.60;99.90
18083;DHT22;9168;51.194;6.840;2024-03-22T01:15:06;11.60;99.90
18083;DHT22;9168;51.194;6.840;2024-03-22T01:17:33;11.60;99.90
18083;DHT22;9168;51.194;6.840;2024-03-22T01:19:59;11.60;99.90
18083;DHT22;9168;51.194;6.840;2024-03-22T01:22:26;11.60;99.90
18083;DHT22;9168;51.194;6.840;2024-03-22T01:24:51;11.60;99.90
18083;DHT22;9168;51.194;6.840;2024-03-22T01:27:18;11.60;99.90
18083;DHT22;9168;51.194;6.840;2024-03-22T01:29:45;11.60;99.90
18083;DHT22;9168;51.194;6.840;2024-03-22T01:32:12;11.70;99.90
18083;DHT22;9168;51.194;6.840;2024-03-22T01:34:38;11.60;99.90
18083;DHT22;9168;51.194;6.840;2024-03-22T01:37:05;11.60;99.90
18083;DHT22;9168;51.194;6.840;2024-03-22T01:39:30;11.60;99.90
18083;DHT22;9168;51.194;6.840;2024-03-22T01:41:57;11.60;99.90
18083;DHT22;9168;51.194;6.840;2024-03-22T01:44:30;11.60;99.90
18083;DHT22;9168;51.194;6.840;2024-03-22T01:46:58;11.60;99.90
18083;DHT22;9168;51.194;6.840;2024-03-22T01:49:25;11.60;99.90
18083;DHT22;9168;51.194;6.840;2024-03-22T01:51:52;11.60;99.90
18083;DHT22;9168;51.194;6.840;2024-03-22T01:54:20;11.60;99.90
18083;DHT22;9168;51.194;6.840;2024-03-22T01:56:46;11.60;99.90
18083;DHT22;9168;51.194;6.840;2024-03-22T01:59:13;11.50;99.90
18083;DHT22;9168;51.194;6.840;2024-03-22T02:01:39;11.60;99.90
18083;DHT22;9168;51.194;6.840;2024-03-22T02:04:05;11.60;99.90
18083;DHT22;9168;51.194;6.840;2024-03-22T02:06:32;11.60;99.90
18083;DHT22;9168;51.194;6.840;2024-03-22T02:08:58;11.60;99.90
18083;DHT22;9168;51.194;6.840;2024-03-22T02:11:26;11.60;99.90
18083;DHT22;9168;51.194;6.840;2024-03-22T02:13:52;11.60;99.90
18083;DHT22;9168;51.194;6.840;2024-03-22T02:16:19;11.50;99.90
18083;DHT22;9168;51.194;6.840;2024-03-22T02:18:44;11.60;99.90
18083;DHT22;9168;51.194;6.840;2024-03-22T02:21:11;11.60;99.90
18083;DHT22;9168;51.194;6.840;2024-03-22T02:23:38;11.50;99.90
18083;DHT22;9168;51.194;6.840;2024-03-22T02:26:06;11.50;99.90
18083;DHT22;9168;51.194;6.840;2024-03-22T02:28:33;11.50;99.90
18083;DHT22;9168;51.194;6.840;2024-03-22T02:31:01;11.50;99.90
18083;DHT22;9168;51.194;6.840;2024-03-22T02:33:27;11.50;99.90
18083;DHT22;9168;51.194;6.840;2024-03-22T02:35:54;11.50;99.90
18083;DHT22;9168;51.194;6.840;2024-03-22T02:38:20;11.50;99.90
18083;DHT22;9168;51.194;6.840;2024-03-22T02:40:50;11.50;99.90
18083;DHT22;9168;51.194;6.840;2024-03-22T02:43:16;11.50;99.90
18083;DHT22;9168;51.194;6.840;2024-03-22T02:45:44;11.50;99.90
18083;DHT22;9168;51.194;6.840;2024-03-22T02:48:10;11.50;99.90
18083;DHT22;9168;51.194;6.840;2024-03-22T02:50:37;11.50;99.90
18083;DHT22;9168;51.194;6.840;2024-03-22T02:53:04;11.50;99.90
18083;DHT22;9168;51.194;6.840;2024-03-22T02:55:39;11.50;99.90
18083;DHT22;9168;51.194;6.840;2024-03-22T02:58:06;11.50;99.90
18083;DHT22;9168;51.194;6.840;2024-03-22T03:00:39;11.60;99.90
18083;DHT22;9168;51.194;6.840;2024-03-22T03:03:06;11.60;99.90
18083;DHT22;9168;51.194;6.840;2024-03-22T03:05:33;11.60;99.90
18083;DHT22;9168;51.194;6.840;2024-03-22T03:07:58;11.60;99.90
18083;DHT22;9168;51.194;6.840;2024-03-22T03:10:26;11.60;99.90
18083;DHT22;9168;51.194;6.840;2024-03-22T03:12:53;11.60;99.90
18083;DHT22;9168;51.194;6.840;2024-03-22T03:15:20;11.60;99.90
18083;DHT22;9168;51.194;6.840;2024-03-22T03:17:46;11.60;99.90
18083;DHT22;9168;51.194;6.840;2024-03-22T03:20:13;11.50;99.90
18083;DHT22;9168;51.194;6.840;2024-03-22T03:22:39;11.60;99.90
18083;DHT22;9168;51.194;6.840;2024-03-22T03:25:07;11.50;99.90
18083;DHT22;9168;51.194;6.840;2024-03-22T03:27:33;11.50;99.90
18083;DHT22;9168;51.194;6.840;2024-03-22T03:30:00;11.40;99.90
18083;DHT22;9168;51.194;6.840;2024-03-22T03:32:27;11.40;99.90
18083;DHT22;9168;51.194;6.840;2024-03-22T03:34:54;11.30;99.90
18083;DHT22;9168;51.194;6.840;2024-03-22T03:37:20;11.30;99.90
18083;DHT22;9168;51.194;6.840;2024-03-22T03:39:46;11.30;99.90
18083;DHT22;9168;51.194;6.840;2024-03-22T03:42:12;11.30;99.90
18083;DHT22;9168;51.194;6.840;2024-03-22T03:44:39;11.20;99.90
18083;DHT22;9168;51.194;6.840;2024-03-22T03:47:05;11.20;99.90
18083;DHT22;9168;51.194;6.840;2024-03-22T03:49:32;11.30;99.90
18083;DHT22;9168;51.194;6.840;2024-03-22T03:51:58;11.30;99.90
18083;DHT22;9168;51.194;6.840;2024-03-22T03:54:24;11.30;99.90
18083;DHT22;9168;51.194;6.840;2024-03-22T03:56:50;11.20;99.90
18083;DHT22;9168;51.194;6.840;2024-03-22T03:59:17;11.20;99.90
18083;DHT22;9168;51.194;6.840;2024-03-22T04:01:43;11.20;99.90
18083;DHT22;9168;51.194;6.840;2024-03-22T04:04:10;11.10;99.90
18083;DHT22;9168;51.194;6.840;2024-03-22T04:06:35;11.10;99.90
18083;DHT22;9168;51.194;6.840;2024-03-22T04:09:03;11.10;99.90
18083;DHT22;9168;51.194;6.840;2024-03-22T04:11:29;11.10;99.90
18083;DHT22;9168;51.194;6.840;2024-03-22T04:13:55;11.00;99.90
18083;DHT22;9168;51.194;6.840;2024-03-22T04:16:21;11.00;99.90
18083;DHT22;9168;51.194;6.840;2024-03-22T04:18:48;11.00;99.90
18083;DHT22;9168;51.194;6.840;2024-03-22T04:21:14;10.90;99.90
18083;DHT22;9168;51.194;6.840;2024-03-22T04:23:41;10.90;99.90
18083;DHT22;9168;51.194;6.840;2024-03-22T04:26:07;10.90;99.90
18083;DHT22;9168;51.194;6.840;2024-03-22T04:28:33;10.90;99.90
18083;DHT22;9168;51.194;6.840;2024-03-22T04:31:01;10.90;99.90
18083;DHT22;9168;51.194;6.840;2024-03-22T04:33:29;10.90;99.90
18083;DHT22;9168;51.194;6.840;2024-03-22T04:35:55;10.90;99.90
18083;DHT22;9168;51.194;6.840;2024-03-22T04:38:23;10.90;99.90
18083;DHT22;9168;51.194;6.840;2024-03-22T04:40:50;10.90;99.90
18083;DHT22;9168;51.194;6.840;2024-03-22T04:43:17;10.90;99.90
18083;DHT22;9168;51.194;6.840;2024-03-22T04:45:45;10.90;99.90
18083;DHT22;9168;51.194;6.840;2024-03-22T04:48:13;10.90;99.90
18083;DHT22;9168;51.194;6.840;2024-03-22T04:50:39;10.90;99.90
18083;DHT22;9168;51.194;6.840;2024-03-22T04:53:06;10.90;99.90
18083;DHT22;9168;51.194;6.840;2024-03-22T04:55:32;10.90;99.90
18083;DHT22;9168;51.194;6.840;2024-03-22T04:57:59;10.90;99.90
18083;DHT22;9168;51.194;6.840;2024-03-22T05:00:26;10.90;99.90
18083;DHT22;9168;51.194;6.840;2024-03-22T05:02:53;11.00;99.90
18083;DHT22;9168;51.194;6.840;2024-03-22T05:05:18;11.00;99.90
18083;DHT22;9168;51.194;6.840;2024-03-22T05:07:45;11.00;99.90
18083;DHT22;9168;51.194;6.840;2024-03-22T05:10:12;11.10;99.90
18083;DHT22;9168;51.194;6.840;2024-03-22T05:12:39;11.10;99.90
18083;DHT22;9168;51.194;6.840;2024-03-22T05:15:06;11.10;99.90
18083;DHT22;9168;51.194;6.840;2024-03-22T05:17:32;11.10;99.90
18083;DHT22;9168;51.194;6.840;2024-03-22T05:19:59;11.20;99.90
18083;DHT22;9168;51.194;6.840;2024-03-22T05:22:25;11.10;99.90
18083;DHT22;9168;51.194;6.840;2024-03-22T05:24:52;11.10;99.90
18083;DHT22;9168;51.194;6.840;2024-03-22T05:27:18;11.10;99.90
18083;DHT22;9168;51.194;6.840;2024-03-22T05:29:44;11.10;99.90
18083;DHT22;9168;51.194;6.840;2024-03-22T05:32:10;11.20;99.90
18083;DHT22;9168;51.194;6.840;2024-03-22T05:34:37;11.20;99.90
18083;DHT22;9168;51.194;6.840;2024-03-22T05:37:03;11.20;99.90
18083;DHT22;9168;51.194;6.840;2024-03-22T05:39:30;11.20;99.90
18083;DHT22;9168;51.194;6.840;2024-03-22T05:41:55;11.30;99.90
18083;DHT22;9168;51.194;6.840;2024-03-22T05:44:22;11.40;99.90
18083;DHT22;9168;51.194;6.840;2024-03-22T05:46:48;11.40;99.90
18083;DHT22;9168;51.194;6.840;2024-03-22T05:49:16;11.50;99.90
18083;DHT22;9168;51.194;6.840;2024-03-22T05:51:41;11.50;99.90
18083;DHT22;9168;51.194;6.840;2024-03-22T05:54:08;11.50;99.90
18083;DHT22;9168;51.194;6.840;2024-03-22T05:56:34;11.60;99.90
18083;DHT22;9168;51.194;6.840;2024-03-22T05:59:01;11.70;99.90
18083;DHT22;9168;51.194;6.840;2024-03-22T06:01:27;11.70;99.90
18083;DHT22;9168;51.194;6.840;2024-03-22T06:03:54;11.70;99.90
18083;DHT22;9168;51.194;6.840;2024-03-22T06:06:19;11.70;99.90
18083;DHT22;9168;51.194;6.840;2024-03-22T06:08:50;11.80;99.90
18083;DHT22;9168;51.194;6.840;2024-03-22T06:11:18;11.80;99.90
18083;DHT22;9168;51.194;6.840;2024-03-22T06:13:44;11.70;99.90
18083;DHT22;9168;51.194;6.840;2024-03-22T06:16:10;11.80;99.90
18083;DHT22;9168;51.194;6.840;2024-03-22T06:18:37;11.80;99.90
18083;DHT22;9168;51.194;6.840;2024-03-22T06:21:03;11.80;99.90
18083;DHT22;9168;51.194;6.840;2024-03-22T06:23:30;11.80;99.90
18083;DHT22;9168;51.194;6.840;2024-03-22T06:25:56;11.90;99.90
18083;DHT22;9168;51.194;6.840;2024-03-22T06:28:23;11.80;99.90
18083;DHT22;9168;51.194;6.840;2024-03-22T06:30:49;11.90;99.90
18083;DHT22;9168;51.194;6.840;2024-03-22T06:33:16;11.90;99.90
18083;DHT22;9168;51.194;6.840;2024-03-22T06:35:42;11.90;99.90
18083;DHT22;9168;51.194;6.840;2024-03-22T06:38:08;12.00;99.90
18083;DHT22;9168;51.194;6.840;2024-03-22T06:40:34;12.10;99.90
18083;DHT22;9168;51.194;6.840;2024-03-22T06:43:01;12.10;99.90
18083;DHT22;9168;51.194;6.840;2024-03-22T06:45:27;12.20;99.90
18083;DHT22;9168;51.194;6.840;2024-03-22T06:47:54;12.20;99.90
18083;DHT22;9168;51.194;6.840;2024-03-22T06:50:21;12.30;99.90
18083;DHT22;9168;51.194;6.840;2024-03-22T06:52:53;12.30;99.90
18083;DHT22;9168;51.194;6.840;2024-03-22T06:55:22;12.40;99.90
18083;DHT22;9168;51.194;6.840;2024-03-22T06:57:50;12.40;99.90
18083;DHT22;9168;51.194;6.840;2024-03-22T07:00:16;12.50;99.90
18083;DHT22;9168;51.194;6.840;2024-03-22T07:02:44;12.50;99.90
18083;DHT22;9168;51.194;6.840;2024-03-22T07:05:10;12.50;99.90
18083;DHT22;9168;51.194;6.840;2024-03-22T07:07:37;12.50;99.90
18083;DHT22;9168;51.194;6.840;2024-03-22T07:10:04;12.60;99.90
18083;DHT22;9168;51.194;6.840;2024-03-22T07:12:34;12.60;99.90
18083;DHT22;9168;51.194;6.840;2024-03-22T07:15:00;12.70;99.90
18083;DHT22;9168;51.194;6.840;2024-03-22T07:17:28;12.70;99.90
18083;DHT22;9168;51.194;6.840;2024-03-22T07:19:54;12.70;99.90
18083;DHT22;9168;51.194;6.840;2024-03-22T07:22:21;12.70;99.90
18083;DHT22;9168;51.194;6.840;2024-03-22T07:24:47;12.80;99.90
18083;DHT22;9168;51.194;6.840;2024-03-22T07:27:14;12.80;99.90
18083;DHT22;9168;51.194;6.840;2024-03-22T07:29:40;12.80;99.90
18083;DHT22;9168;51.194;6.840;2024-03-22T07:32:07;12.80;99.90
18083;DHT22;9168;51.194;6.840;2024-03-22T07:34:34;12.80;99.90
18083;DHT22;9168;51.194;6.840;2024-03-22T07:37:00;12.90;99.90
18083;DHT22;9168;51.194;6.840;2024-03-22T07:39:26;12.90;99.90
18083;DHT22;9168;51.194;6.840;2024-03-22T07:41:52;12.90;99.90
18083;DHT22;9168;51.194;6.840;2024-03-22T07:44:19;13.00;99.90
18083;DHT22;9168;51.194;6.840;2024-03-22T07:46:45;13.10;99.90
18083;DHT22;9168;51.194;6.840;2024-03-22T07:49:12;13.20;99.90
18083;DHT22;9168;51.194;6.840;2024-03-22T07:51:38;13.30;99.90
18083;DHT22;9168;51.194;6.840;2024-03-22T07:54:05;13.30;99.90
18083;DHT22;9168;51.194;6.840;2024-03-22T07:56:31;13.50;99.90
18083;DHT22;9168;51.194;6.840;2024-03-22T07:58:58;13.50;99.90
18083;DHT22;9168;51.194;6.840;2024-03-22T08:01:24;13.60;99.90
18083;DHT22;9168;51.194;6.840;2024-03-22T08:03:53;13.60;99.90
18083;DHT22;9168;51.194;6.840;2024-03-22T08:06:19;13.70;99.90
18083;DHT22;9168;51.194;6.840;2024-03-22T08:08:46;13.70;99.90
18083;DHT22;9168;51.194;6.840;2024-03-22T08:11:12;13.80;99.90
18083;DHT22;9168;51.194;6.840;2024-03-22T08:13:39;13.90;99.90
18083;DHT22;9168;51.194;6.840;2024-03-22T08:16:05;13.90;99.90
18083;DHT22;9168;51.194;6.840;2024-03-22T08:18:32;13.90;99.90
18083;DHT22;9168;51.194;6.840;2024-03-22T08:20:58;13.90;99.90
18083;DHT22;9168;51.194;6.840;2024-03-22T08:23:25;13.90;99.90
18083;DHT22;9168;51.194;6.840;2024-03-22T08:25:51;13.90;99.90
18083;DHT22;9168;51.194;6.840;2024-03-22T08:28:18;13.90;99.90
18083;DHT22;9168;51.194;6.840;2024-03-22T08:30:44;14.00;99.90
18083;DHT22;9168;51.194;6.840;2024-03-22T08:33:11;14.00;99.90
18083;DHT22;9168;51.194;6.840;2024-03-22T08:35:37;14.00;99.90
18083;DHT22;9168;51.194;6.840;2024-03-22T08:38:04;14.00;99.90
18083;DHT22;9168;51.194;6.840;2024-03-22T08:40:37;14.10;99.90
18083;DHT22;9168;51.194;6.840;2024-03-22T08:43:05;14.10;99.90
18083;DHT22;9168;51.194;6.840;2024-03-22T08:45:33;14.10;99.90
18083;DHT22;9168;51.194;6.840;2024-03-22T08:47:59;14.10;99.90
18083;DHT22;9168;51.194;6.840;2024-03-22T08:50:25;14.20;99.90
18083;DHT22;9168;51.194;6.840;2024-03-22T08:52:52;14.20;99.90
18083;DHT22;9168;51.194;6.840;2024-03-22T08:55:18;14.20;99.90
18083;DHT22;9168;51.194;6.840;2024-03-22T08:57:45;14.30;99.90
18083;DHT22;9168;51.194;6.840;2024-03-22T09:00:11;14.30;99.90
18083;DHT22;9168;51.194;6.840;2024-03-22T09:02:38;14.40;99.90
18083;DHT22;9168;51.194;6.840;2024-03-22T09:05:05;14.40;99.90
18083;DHT22;9168;51.194;6.840;2024-03-22T09:07:31;14.50;99.90
18083;DHT22;9168;51.194;6.840;2024-03-22T09:09:57;14.50;99.90
18083;DHT22;9168;51.194;6.840;2024-03-22T09:12:24;14.60;99.90
18083;DHT22;9168;51.194;6.840;2024-03-22T09:14:50;14.60;99.90
18083;DHT22;9168;51.194;6.840;2024-03-22T09:17:16;14.60;99.90
18083;DHT22;9168;51.194;6.840;2024-03-22T09:19:42;14.50;99.90
18083;DHT22;9168;51.194;6.840;2024-03-22T09:22:08;14.60;99.90
18083;DHT22;9168;51.194;6.840;2024-03-22T09:24:34;14.50;99.90
18083;DHT22;9168;51.194;6.840;2024-03-22T09:27:01;14.50;99.90
18083;DHT22;9168;51.194;6.840;2024-03-22T09:29:29;14.60;99.90
18083;DHT22;9168;51.194;6.840;2024-03-22T09:31:56;14.60;99.90
18083;DHT22;9168;51.194;6.840;2024-03-22T09:34:22;14.60;99.90
18083;DHT22;9168;51.194;6.840;2024-03-22T09:36:48;14.70;99.90
18083;DHT22;9168;51.194;6.840;2024-03-22T09:39:14;14.80;99.90
18083;DHT22;9168;51.194;6.840;2024-03-22T09:41:43;14.80;99.90
18083;DHT22;9168;51.194;6.840;2024-03-22T09:44:13;14.90;99.90
18083;DHT22;9168;51.194;6.840;2024-03-22T09:46:41;15.00;99.90
18083;DHT22;9168;51.194;6.840;2024-03-22T09:49:09;15.20;99.90
18083;DHT22;9168;51.194;6.840;2024-03-22T09:51:37;15.30;99.90
18083;DHT22;9168;51.194;6.840;2024-03-22T09:54:03;15.40;99.90
18083;DHT22;9168;51.194;6.840;2024-03-22T09:56:31;15.40;99.90
18083;DHT22;9168;51.194;6.840;2024-03-22T09:58:57;15.40;99.90
18083;DHT22;9168;51.194;6.840;2024-03-22T10:01:25;15.50;99.90
18083;DHT22;9168;51.194;6.840;2024-03-22T10:03:54;15.50;99.90
18083;DHT22;9168;51.194;6.840;2024-03-22T10:06:21;15.40;99.90
18083;DHT22;9168;51.194;6.840;2024-03-22T10:08:48;15.40;99.90
18083;DHT22;9168;51.194;6.840;2024-03-22T10:11:14;15.30;99.90
18083;DHT22;9168;51.194;6.840;2024-03-22T10:13:40;15.20;99.90
18083;DHT22;9168;51.194;6.840;2024-03-22T10:16:07;15.10;99.90
18083;DHT22;9168;51.194;6.840;2024-03-22T10:18:33;15.00;99.90
18083;DHT22;9168;51.194;6.840;2024-03-22T10:21:06;15.00;99.90
18083;DHT22;9168;51.194;6.840;2024-03-22T10:23:32;15.00;99.90
18083;DHT22;9168;51.194;6.840;2024-03-22T10:25:59;14.90;99.90
18083;DHT22;9168;51.194;6.840;2024-03-22T10:28:26;14.90;99.90
18083;DHT22;9168;51.194;6.840;2024-03-22T10:30:54;14.90;99.90
18083;DHT22;9168;51.194;6.840;2024-03-22T10:33:20;14.80;99.90
18083;DHT22;9168;51.194;6.840;2024-03-22T10:35:53;14.80;99.90
18083;DHT22;9168;51.194;6.840;2024-03-22T10:38:20;14.90;99.90
18083;DHT22;9168;51.194;6.840;2024-03-22T10:40:47;14.90;99.90
18083;DHT22;9168;51.194;6.840;2024-03-22T10:43:14;14.90;99.90
18083;DHT22;9168;51.194;6.840;2024-03-22T10:45:41;14.90;99.90
18083;DHT22;9168;51.194;6.840;2024-03-22T10:48:11;14.90;99.90
18083;DHT22;9168;51.194;6.840;2024-03-22T10:50:39;14.90;99.90
18083;DHT22;9168;51.194;6.840;2024-03-22T10:53:09;14.90;99.90
18083;DHT22;9168;51.194;6.840;2024-03-22T10:55:39;14.90;99.90
18083;DHT22;9168;51.194;6.840;2024-03-22T10:58:07;14.80;99.90
18083;DHT22;9168;51.194;6.840;2024-03-22T11:00:34;14.90;99.90
18083;DHT22;9168;51.194;6.840;2024-03-22T11:03:04;14.90;99.90
18083;DHT22;9168;51.194;6.840;2024-03-22T11:05:31;14.90;99.90
18083;DHT22;9168;51.194;6.840;2024-03-22T11:08:00;14.90;99.90
18083;DHT22;9168;51.194;6.840;2024-03-22T11:10:30;14.90;99.90
18083;DHT22;9168;51.194;6.840;2024-03-22T11:13:01;14.90;99.90
18083;DHT22;9168;51.194;6.840;2024-03-22T11:15:29;14.90;99.90
18083;DHT22;9168;51.194;6.840;2024-03-22T11:17:55;14.90;99.90
18083;DHT22;9168;51.194;6.840;2024-03-22T11:20:22;14.90;99.90
18083;DHT22;9168;51.194;6.840;2024-03-22T11:22:48;14.90;99.90
18083;DHT22;9168;51.194;6.840;2024-03-22T11:25:15;14.90;99.90
18083;DHT22;9168;51.194;6.840;2024-03-22T11:27:40;15.00;99.90
18083;DHT22;9168;51.194;6.840;2024-03-22T11:30:07;15.10;99.90
18083;DHT22;9168;51.194;6.840;2024-03-22T11:32:33;15.00;99.90
18083;DHT22;9168;51.194;6.840;2024-03-22T11:35:11;15.10;99.90
18083;DHT22;9168;51.194;6.840;2024-03-22T11:37:38;15.30;99.90
18083;DHT22;9168;51.194;6.840;2024-03-22T11:40:09;15.40;99.90
18083;DHT22;9168;51.194;6.840;2024-03-22T11:42:39;15.40;99.90
18083;DHT22;9168;51.194;6.840;2024-03-22T11:45:08;15.60;99.90
18083;DHT22;9168;51.194;6.840;2024-03-22T11:47:35;15.50;99.90
18083;DHT22;9168;51.194;6.840;2024-03-22T11:50:02;15.60;99.90
18083;DHT22;9168;51.194;6.840;2024-03-22T11:52:28;15.90;99.90
18083;DHT22;9168;51.194;6.840;2024-03-22T11:54:56;16.20;99.90
18083;DHT22;9168;51.194;6.840;2024-03-22T11:57:22;16.50;99.90
18083;DHT22;9168;51.194;6.840;2024-03-22T11:59:48;16.70;99.90
18083;DHT22;9168;51.194;6.840;2024-03-22T12:02:14;16.90;99.90
18083;DHT22;9168;51.194;6.840;2024-03-22T12:04:42;17.00;99.90
18083;DHT22;9168;51.194;6.840;2024-03-22T12:07:13;17.00;99.90
18083;DHT22;9168;51.194;6.840;2024-03-22T12:09:44;17.00;99.90
18083;DHT22;9168;51.194;6.840;2024-03-22T12:12:11;17.10;99.90
18083;DHT22;9168;51.194;6.840;2024-03-22T12:14:39;17.00;99.90
18083;DHT22;9168;51.194;6.840;2024-03-22T12:17:06;16.80;99.90
18083;DHT22;9168;51.194;6.840;2024-03-22T12:19:33;16.60;99.90
18083;DHT22;9168;51.194;6.840;2024-03-22T12:21:59;16.50;99.90
18083;DHT22;9168;51.194;6.840;2024-03-22T12:24:27;16.40;99.90
18083;DHT22;9168;51.194;6.840;2024-03-22T12:26:52;16.40;99.90
18083;DHT22;9168;51.194;6.840;2024-03-22T12:29:20;16.30;99.90
18083;DHT22;9168;51.194;6.840;2024-03-22T12:31:46;16.30;99.90
18083;DHT22;9168;51.194;6.840;2024-03-22T12:34:13;16.20;99.90
18083;DHT22;9168;51.194;6.840;2024-03-22T12:36:39;16.20;99.90
18083;DHT22;9168;51.194;6.840;2024-03-22T12:39:06;16.10;99.90
18083;DHT22;9168;51.194;6.840;2024-03-22T12:41:32;16.10;99.90
18083;DHT22;9168;51.194;6.840;2024-03-22T12:44:00;16.00;99.90
18083;DHT22;9168;51.194;6.840;2024-03-22T12:46:26;16.00;99.90
18083;DHT22;9168;51.194;6.840;2024-03-22T12:48:53;15.80;99.90
18083;DHT22;9168;51.194;6.840;2024-03-22T12:51:19;15.70;99.90
18083;DHT22;9168;51.194;6.840;2024-03-22T12:53:46;15.60;99.90
18083;DHT22;9168;51.194;6.840;2024-03-22T12:56:12;15.50;99.90
18083;DHT22;9168;51.194;6.840;2024-03-22T12:58:39;15.40;99.90
18083;DHT22;9168;51.194;6.840;2024-03-22T13:01:05;15.30;99.90
18083;DHT22;9168;51.194;6.840;2024-03-22T13:03:32;15.20;99.90
18083;DHT22;9168;51.194;6.840;2024-03-22T13:05:58;15.20;99.90
18083;DHT22;9168;51.194;6.840;2024-03-22T13:08:25;15.30;99.90
18083;DHT22;9168;51.194;6.840;2024-03-22T13:10:51;15.20;99.90
18083;DHT22;9168;51.194;6.840;2024-03-22T13:13:18;15.20;99.90
18083;DHT22;9168;51.194;6.840;2024-03-22T13:15:44;15.10;99.90
18083;DHT22;9168;51.194;6.840;2024-03-22T13:18:12;15.00;99.90
18083;DHT22;9168;51.194;6.840;2024-03-22T13:20:38;15.00;99.90
18083;DHT22;9168;51.194;6.840;2024-03-22T13:23:05;14.90;99.90
18083;DHT22;9168;51.194;6.840;2024-03-22T13:25:31;14.90;99.90
18083;DHT22;9168;51.194;6.840;2024-03-22T13:27:58;14.90;99.90
18083;DHT22;9168;51.194;6.840;2024-03-22T13:30:24;14.90;99.90
18083;DHT22;9168;51.194;6.840;2024-03-22T13:32:50;14.90;99.90
18083;DHT22;9168;51.194;6.840;2024-03-22T13:35:16;14.80;99.90
18083;DHT22;9168;51.194;6.840;2024-03-22T13:37:43;14.80;99.90
18083;DHT22;9168;51.194;6.840;2024-03-22T13:40:09;14.80;99.90
18083;DHT22;9168;51.194;6.840;2024-03-22T13:42:36;14.80;99.90
18083;DHT22;9168;51.194;6.840;2024-03-22T13:45:02;14.80;99.90
18083;DHT22;9168;51.194;6.840;2024-03-22T13:47:28;14.70;99.90
18083;DHT22;9168;51.194;6.840;2024-03-22T13:49:54;14.70;99.90
18083;DHT22;9168;51.194;6.840;2024-03-22T13:52:21;14.60;99.90
18083;DHT22;9168;51.194;6.840;2024-03-22T13:54:47;14.70;99.90
18083;DHT22;9168;51.194;6.840;2024-03-22T13:57:15;14.60;99.90
18083;DHT22;9168;51.194;6.840;2024-03-22T13:59:41;14.60;99.90
18083;DHT22;9168;51.194;6.840;2024-03-22T14:02:08;14.50;99.90
18083;DHT22;9168;51.194;6.840;2024-03-22T14:04:34;14.50;99.90
18083;DHT22;9168;51.194;6.840;2024-03-22T14:07:01;14.50;99.90
18083;DHT22;9168;51.194;6.840;2024-03-22T14:09:31;14.40;99.90
18083;DHT22;9168;51.194;6.840;2024-03-22T14:11:58;14.40;99.90
18083;DHT22;9168;51.194;6.840;2024-03-22T14:14:25;14.40;99.90
18083;DHT22;9168;51.194;6.840;2024-03-22T14:16:52;14.30;99.90
18083;DHT22;9168;51.194;6.840;2024-03-22T14:19:18;14.30;99.90
18083;DHT22;9168;51.194;6.840;2024-03-22T14:21:45;14.20;99.90
18083;DHT22;9168;51.194;6.840;2024-03-22T14:24:12;14.10;99.90
18083;DHT22;9168;51.194;6.840;2024-03-22T14:26:39;14.10;99.90
18083;DHT22;9168;51.194;6.840;2024-03-22T14:29:08;14.10;99.90
18083;DHT22;9168;51.194;6.840;2024-03-22T14:31:36;14.10;99.90
18083;DHT22;9168;51.194;6.840;2024-03-22T14:34:02;14.10;99.90
18083;DHT22;9168;51.194;6.840;2024-03-22T14:36:29;14.10;99.90
18083;DHT22;9168;51.194;6.840;2024-03-22T14:38:55;14.10;99.90
18083;DHT22;9168;51.194;6.840;2024-03-22T14:41:21;14.10;99.90
18083;DHT22;9168;51.194;6.840;2024-03-22T14:43:47;14.10;99.90
18083;DHT22;9168;51.194;6.840;2024-03-22T14:46:14;14.10;99.90
18083;DHT22;9168;51.194;6.840;2024-03-22T14:48:41;13.90;99.90
18083;DHT22;9168;51.194;6.840;2024-03-22T14:51:08;13.90;99.90
18083;DHT22;9168;51.194;6.840;2024-03-22T14:53:35;13.90;99.90
18083;DHT22;9168;51.194;6.840;2024-03-22T14:56:03;13.90;99.90
18083;DHT22;9168;51.194;6.840;2024-03-22T14:58:33;13.90;99.90
18083;DHT22;9168;51.194;6.840;2024-03-22T15:01:01;13.90;99.90
18083;DHT22;9168;51.194;6.840;2024-03-22T15:03:28;13.90;99.90
18083;DHT22;9168;51.194;6.840;2024-03-22T15:05:56;13.90;99.90
18083;DHT22;9168;51.194;6.840;2024-03-22T15:08:22;13.90;99.90
18083;DHT22;9168;51.194;6.840;2024-03-22T15:10:49;13.90;99.90
18083;DHT22;9168;51.194;6.840;2024-03-22T15:13:16;13.80;99.90
18083;DHT22;9168;51.194;6.840;2024-03-22T15:15:54;13.70;99.90
18083;DHT22;9168;51.194;6.840;2024-03-22T15:18:21;13.70;99.90
18083;DHT22;9168;51.194;6.840;2024-03-22T15:20:48;13.60;99.90
18083;DHT22;9168;51.194;6.840;2024-03-22T15:23:15;13.60;99.90
18083;DHT22;9168;51.194;6.840;2024-03-22T15:25:42;13.50;99.90
18083;DHT22;9168;51.194;6.840;2024-03-22T15:28:11;13.50;99.90
18083;DHT22;9168;51.194;6.840;2024-03-22T15:30:39;13.50;99.90
18083;DHT22;9168;51.194;6.840;2024-03-22T15:33:05;13.50;99.90
18083;DHT22;9168;51.194;6.840;2024-03-22T15:35:32;13.40;99.90
18083;DHT22;9168;51.194;6.840;2024-03-22T15:37:58;13.30;99.90
18083;DHT22;9168;51.194;6.840;2024-03-22T15:40:25;13.30;99.90
18083;DHT22;9168;51.194;6.840;2024-03-22T15:42:51;13.20;99.90